createdAt,value
2023-03-06T00:00:48.916Z,2.80
2023-03-06T00:03:15.879Z,2.60
2023-03-06T00:05:42.313Z,2.83
2023-03-06T00:10:35.242Z,2.47
2023-03-06T00:13:05.734Z,2.55
2023-03-06T00:15:32.465Z,2.55
2023-03-06T00:17:59.067Z,2.60
2023-03-06T00:20:26.394Z,2.45
2023-03-06T00:22:52.843Z,2.30
2023-03-06T00:27:48.978Z,2.25
2023-03-06T00:30:18.528Z,2.30
2023-03-06T00:32:44.911Z,2.58
2023-03-06T00:35:12.281Z,2.45
2023-03-06T00:37:39.292Z,2.75
2023-03-06T00:40:07.116Z,2.55
2023-03-06T00:42:33.485Z,2.55
2023-03-06T00:44:59.799Z,2.70
2023-03-06T00:47:26.189Z,2.80
2023-03-06T00:52:18.846Z,2.97
2023-03-06T00:54:45.201Z,2.72
2023-03-06T00:57:11.610Z,2.88
2023-03-06T01:02:04.770Z,2.80
2023-03-06T01:04:31.503Z,2.92
2023-03-06T01:06:57.834Z,3.38
2023-03-06T01:09:24.320Z,3.78
2023-03-06T01:14:17.274Z,3.33
2023-03-06T01:19:09.957Z,3.90
2023-03-06T01:21:36.316Z,3.10
2023-03-06T01:24:02.728Z,3.17
2023-03-06T01:28:55.338Z,3.50
2023-03-06T01:31:21.719Z,3.75
2023-03-06T01:33:48.053Z,4.03
2023-03-06T01:36:14.416Z,3.55
2023-03-06T01:38:40.922Z,3.90
2023-03-06T01:43:36.203Z,4.05
2023-03-06T01:46:24.075Z,4.68
2023-03-06T01:48:55.471Z,3.78
2023-03-06T01:51:25.470Z,3.90
2023-03-06T01:53:52.787Z,4.15
2023-03-06T01:56:19.804Z,3.80
2023-03-06T01:58:47.252Z,4.05
2023-03-06T02:01:14.557Z,4.03
2023-03-06T02:03:43.584Z,4.28
2023-03-06T02:06:09.941Z,4.25
2023-03-06T02:08:36.358Z,4.53
2023-03-06T02:13:38.641Z,3.55
2023-03-06T02:16:05.510Z,3.70
2023-03-06T02:18:33.598Z,3.83
2023-03-06T02:21:03.720Z,4.22
2023-03-06T02:24:07.979Z,3.92
2023-03-06T02:26:36.874Z,3.45
2023-03-06T02:29:03.731Z,3.70
2023-03-06T02:31:33.081Z,3.28
2023-03-06T02:34:28.544Z,3.78
2023-03-06T02:37:15.173Z,4.00
2023-03-06T02:39:46.766Z,3.30
2023-03-06T02:42:22.292Z,3.15
2023-03-06T02:44:49.365Z,3.72
2023-03-06T02:47:15.816Z,3.25
2023-03-06T02:49:42.165Z,3.35
2023-03-06T02:52:08.586Z,3.10
2023-03-06T02:57:01.205Z,2.85
2023-03-06T03:01:53.905Z,2.88
2023-03-06T03:06:46.549Z,3.33
2023-03-06T03:11:39.198Z,3.00
2023-03-06T03:16:31.896Z,3.00
2023-03-06T03:18:58.346Z,3.20
2023-03-06T03:23:51.061Z,3.00
2023-03-06T03:28:45.559Z,3.30
2023-03-06T03:31:12.744Z,3.60
2023-03-06T03:33:40.073Z,3.28
2023-03-06T03:36:08.205Z,3.35
2023-03-06T03:38:35.253Z,3.38
2023-03-06T03:41:02.304Z,3.80
2023-03-06T03:43:28.721Z,3.78
2023-03-06T03:48:21.464Z,3.03
2023-03-06T03:50:47.859Z,3.08
2023-03-06T03:53:14.206Z,3.60
2023-03-06T03:55:40.600Z,3.90
2023-03-06T04:00:33.332Z,4.30
2023-03-06T04:05:26.072Z,4.05
2023-03-06T04:10:18.945Z,4.32
2023-03-06T04:12:45.400Z,4.30
2023-03-06T04:17:38.218Z,4.72
2023-03-06T04:20:05.184Z,5.13
2023-03-06T04:22:31.670Z,4.88
2023-03-06T04:24:58.105Z,4.97
2023-03-06T04:29:50.923Z,4.65
2023-03-06T04:32:18.301Z,5.38
2023-03-06T04:34:46.110Z,5.72
2023-03-06T04:39:44.741Z,6.28
2023-03-06T04:42:11.230Z,5.43
2023-03-06T04:44:37.660Z,6.40
2023-03-06T04:49:30.542Z,6.55
2023-03-06T04:54:23.471Z,6.20
2023-03-06T04:56:49.886Z,6.15
2023-03-06T05:01:42.657Z,6.30
2023-03-06T05:06:35.497Z,7.03
2023-03-06T05:09:01.903Z,7.03
2023-03-06T05:13:54.883Z,7.18
2023-03-06T05:16:21.450Z,7.97
2023-03-06T05:18:50.504Z,7.63
2023-03-06T05:21:17.219Z,7.70
2023-03-06T05:23:43.886Z,7.75
2023-03-06T05:26:13.058Z,8.15
2023-03-06T05:28:39.655Z,7.78
2023-03-06T05:31:06.809Z,8.48
2023-03-06T05:33:34.342Z,7.30
2023-03-06T05:36:01.121Z,8.65
2023-03-06T05:38:27.941Z,7.88
2023-03-06T05:40:54.484Z,8.38
2023-03-06T05:43:20.979Z,7.75
2023-03-06T05:45:47.454Z,8.20
2023-03-06T05:48:14.105Z,8.25
2023-03-06T05:50:40.508Z,8.00
2023-03-06T05:55:33.427Z,8.23
2023-03-06T05:57:59.993Z,8.38
2023-03-06T06:00:26.524Z,9.10
2023-03-06T06:02:53.005Z,8.52
2023-03-06T06:05:19.441Z,8.73
2023-03-06T06:10:12.590Z,7.80
2023-03-06T06:12:39.062Z,7.80
2023-03-06T06:15:07.624Z,8.00
2023-03-06T06:17:33.992Z,8.43
2023-03-06T06:22:26.999Z,7.80
2023-03-06T06:24:53.448Z,7.18
2023-03-06T06:27:19.935Z,6.90
2023-03-06T06:29:46.524Z,6.65
2023-03-06T06:32:13.143Z,6.25
2023-03-06T06:34:39.722Z,6.70
2023-03-06T06:37:06.143Z,6.13
2023-03-06T06:42:15.474Z,6.03
2023-03-06T06:44:45.644Z,5.68
2023-03-06T06:47:27.647Z,5.60
2023-03-06T06:49:55.702Z,4.72
2023-03-06T06:52:23.774Z,4.88
2023-03-06T06:54:50.546Z,4.20
2023-03-06T06:57:17.565Z,3.58
2023-03-06T06:59:44.089Z,3.53
2023-03-06T07:02:12.505Z,3.55
2023-03-06T07:04:42.456Z,3.38
2023-03-06T07:07:15.574Z,2.58
2023-03-06T07:12:09.040Z,2.17
2023-03-06T07:14:35.795Z,1.92
2023-03-06T07:17:02.434Z,2.28
2023-03-06T07:19:28.883Z,1.05
2023-03-06T07:21:55.366Z,1.40
2023-03-06T07:24:21.835Z,1.15
2023-03-06T07:26:48.609Z,1.70
2023-03-06T07:29:15.440Z,1.42
2023-03-06T07:31:41.898Z,0.80
2023-03-06T07:34:12.383Z,1.05
2023-03-06T07:36:39.146Z,1.30
2023-03-06T07:39:05.988Z,1.17
2023-03-06T07:41:32.536Z,1.10
2023-03-06T07:43:59.276Z,1.60
2023-03-06T07:46:25.762Z,1.55
2023-03-06T07:48:52.272Z,1.42
2023-03-06T07:51:20.873Z,1.40
2023-03-06T07:53:48.688Z,1.90
2023-03-06T07:56:15.381Z,1.52
2023-03-06T07:58:44.605Z,1.20
2023-03-06T08:01:17.811Z,1.58
2023-03-06T08:03:44.793Z,1.38
2023-03-06T08:06:13.860Z,1.50
2023-03-06T08:08:43.119Z,1.65
2023-03-06T08:11:11.060Z,2.17
2023-03-06T08:13:37.587Z,1.60
2023-03-06T08:16:04.612Z,1.40
2023-03-06T08:18:31.388Z,1.70
2023-03-06T08:21:02.374Z,1.30
2023-03-06T08:23:29.001Z,1.25
2023-03-06T08:25:58.016Z,1.20
2023-03-06T08:28:24.639Z,1.00
2023-03-06T08:30:51.089Z,1.33
2023-03-06T08:33:17.507Z,1.33
2023-03-06T08:35:44.094Z,1.13
2023-03-06T08:38:10.574Z,1.33
2023-03-06T08:40:37.475Z,1.20
2023-03-06T08:43:04.215Z,1.42
2023-03-06T08:45:30.663Z,1.45
2023-03-06T08:47:57.077Z,1.30
2023-03-06T08:50:23.418Z,0.88
2023-03-06T08:52:49.806Z,1.05
2023-03-06T08:55:16.267Z,1.05
2023-03-06T08:57:42.611Z,1.15
2023-03-06T09:00:09.745Z,1.10
2023-03-06T09:02:36.265Z,1.38
2023-03-06T09:05:05.894Z,1.20
2023-03-06T09:07:32.422Z,1.20
2023-03-06T09:09:59.053Z,1.00
2023-03-06T09:12:25.941Z,1.25
2023-03-06T09:14:52.930Z,1.20
2023-03-06T09:17:19.876Z,1.20
2023-03-06T09:19:46.355Z,0.88
2023-03-06T09:22:12.712Z,1.05
2023-03-06T09:24:39.159Z,1.10
2023-03-06T09:27:05.543Z,1.10
2023-03-06T09:29:31.964Z,1.30
2023-03-06T09:31:58.649Z,1.30
2023-03-06T09:34:25.134Z,1.30
2023-03-06T09:36:56.699Z,1.23
2023-03-06T09:39:24.483Z,1.40
2023-03-06T09:41:51.359Z,1.20
2023-03-06T09:44:27.535Z,1.27
2023-03-06T09:47:28.426Z,1.45
2023-03-06T09:50:30.537Z,1.30
2023-03-06T09:53:32.360Z,1.33
2023-03-06T09:56:21.549Z,1.20
2023-03-06T09:58:53.733Z,1.42
2023-03-06T10:03:55.042Z,1.20
2023-03-06T10:06:29.249Z,1.13
2023-03-06T10:09:05.251Z,1.30
2023-03-06T10:11:42.133Z,1.30
2023-03-06T10:14:31.634Z,1.33
2023-03-06T10:16:58.468Z,1.35
2023-03-06T10:19:33.476Z,1.23
2023-03-06T10:22:28.260Z,1.20
2023-03-06T10:25:12.522Z,1.38
2023-03-06T10:30:42.022Z,1.08
2023-03-06T10:33:21.156Z,0.80
2023-03-06T10:35:52.873Z,1.10
2023-03-06T10:38:37.653Z,1.02
2023-03-06T10:41:12.874Z,0.90
2023-03-06T10:43:45.056Z,1.20
2023-03-06T10:48:42.286Z,1.10
2023-03-06T10:51:21.894Z,1.02
2023-03-06T10:53:50.234Z,0.90
2023-03-06T10:56:37.495Z,0.90
2023-03-06T10:59:16.782Z,0.90
2023-03-06T11:01:48.824Z,1.10
2023-03-06T11:04:20.971Z,1.00
2023-03-06T11:09:20.593Z,0.80
2023-03-06T11:11:47.276Z,1.02
2023-03-06T11:14:22.176Z,1.00
2023-03-06T11:16:50.714Z,0.82
2023-03-06T11:19:28.164Z,1.13
2023-03-06T11:22:06.581Z,0.90
2023-03-06T11:24:39.411Z,1.00
2023-03-06T11:27:29.609Z,1.00
2023-03-06T11:32:28.952Z,1.00
2023-03-06T11:34:58.303Z,1.30
2023-03-06T11:37:45.845Z,1.10
2023-03-06T11:40:12.185Z,1.30
2023-03-06T11:43:02.469Z,0.90
2023-03-06T11:45:36.288Z,0.70
2023-03-06T11:48:14.894Z,0.70
2023-03-06T11:50:44.941Z,0.70
2023-03-06T11:53:15.937Z,0.77
2023-03-06T11:56:05.483Z,0.80
2023-03-06T11:58:53.903Z,0.90
2023-03-06T12:01:35.680Z,0.80
2023-03-06T12:04:20.885Z,0.70
2023-03-06T12:07:12.185Z,0.57
2023-03-06T12:09:53.775Z,0.68
2023-03-06T12:12:48.181Z,0.98
2023-03-06T12:15:40.641Z,0.50
2023-03-06T12:18:30.384Z,0.60
2023-03-06T12:21:05.612Z,0.50
2023-03-06T12:23:40.866Z,0.60
2023-03-06T12:26:31.773Z,0.55
2023-03-06T12:29:35.833Z,0.50
2023-03-06T12:32:24.602Z,0.40
2023-03-06T12:35:06.372Z,0.60
2023-03-06T12:37:49.884Z,0.50
2023-03-06T12:40:37.287Z,0.55
2023-03-06T12:43:38.398Z,0.45
2023-03-06T12:49:07.665Z,0.90
2023-03-06T12:51:34.306Z,0.70
2023-03-06T12:54:02.761Z,0.80
2023-03-06T12:56:31.064Z,0.60
2023-03-06T12:58:58.830Z,0.70
2023-03-06T13:02:00.341Z,0.80
2023-03-06T13:04:53.104Z,0.65
2023-03-06T13:07:35.526Z,0.68
2023-03-06T13:10:22.360Z,0.70
2023-03-06T13:13:02.496Z,0.40
2023-03-06T13:15:39.718Z,0.50
2023-03-06T13:18:21.208Z,0.50
2023-03-06T13:20:52.630Z,0.57
2023-03-06T13:23:34.134Z,0.50
2023-03-06T13:26:23.390Z,0.70
2023-03-06T13:28:51.771Z,0.90
2023-03-06T13:31:33.494Z,0.60
2023-03-06T13:34:04.799Z,0.60
2023-03-06T13:36:39.037Z,0.80
2023-03-06T13:39:05.964Z,0.70
2023-03-06T13:41:32.302Z,0.60
2023-03-06T13:44:01.236Z,0.73
2023-03-06T13:46:36.942Z,1.10
2023-03-06T13:49:09.399Z,1.13
2023-03-06T13:51:38.368Z,1.55
2023-03-06T13:54:39.050Z,1.33
2023-03-06T13:57:33.253Z,1.10
2023-03-06T14:00:11.844Z,1.10
2023-03-06T14:02:53.398Z,1.30
2023-03-06T14:05:19.849Z,1.20
2023-03-06T14:07:48.407Z,1.40
2023-03-06T14:10:14.719Z,1.30
2023-03-06T14:12:51.580Z,1.00
2023-03-06T14:15:36.128Z,1.20
2023-03-06T14:18:18.246Z,1.13
2023-03-06T14:20:56.561Z,1.48
2023-03-06T14:23:33.385Z,1.27
2023-03-06T14:26:07.954Z,1.35
2023-03-06T14:28:35.708Z,1.23
2023-03-06T14:31:04.834Z,1.10
2023-03-06T14:33:50.163Z,1.40
2023-03-06T14:36:19.384Z,1.10
2023-03-06T14:38:55.644Z,1.30
2023-03-06T14:41:28.717Z,1.30
2023-03-06T14:44:21.247Z,1.30
2023-03-06T14:47:11.116Z,1.48
2023-03-06T14:49:37.511Z,1.75
2023-03-06T14:52:04.216Z,1.70
2023-03-06T14:54:36.107Z,2.10
2023-03-06T14:57:08.444Z,2.60
2023-03-06T14:59:41.573Z,2.38
2023-03-06T15:02:15.437Z,2.47
2023-03-06T15:04:46.100Z,2.72
2023-03-06T15:07:18.447Z,2.78
2023-03-06T15:09:49.520Z,2.80
2023-03-06T15:12:18.610Z,3.05
2023-03-06T15:14:56.734Z,3.67
2023-03-06T15:17:28.665Z,3.92
2023-03-06T15:19:57.302Z,3.55
2023-03-06T15:22:31.633Z,4.20
2023-03-06T15:25:24.578Z,4.40
2023-03-06T15:27:56.477Z,4.35
2023-03-06T15:30:38.922Z,3.53
2023-03-06T15:33:23.819Z,3.47
2023-03-06T15:36:20.745Z,4.10
2023-03-06T15:38:47.859Z,4.30
2023-03-06T15:41:29.422Z,4.13
2023-03-06T15:43:58.004Z,4.18
2023-03-06T15:46:24.488Z,3.72
2023-03-06T15:48:58.335Z,4.05
2023-03-06T15:51:25.402Z,4.90
2023-03-06T15:53:55.018Z,5.03
2023-03-06T15:56:28.432Z,5.50
2023-03-06T15:58:56.266Z,5.55
2023-03-06T16:01:22.724Z,5.35
2023-03-06T16:03:49.192Z,5.45
2023-03-06T16:06:21.182Z,5.80
2023-03-06T16:08:47.623Z,6.30
2023-03-06T16:11:32.544Z,5.78
2023-03-06T16:14:02.018Z,6.00
2023-03-06T16:16:37.621Z,4.65
2023-03-06T16:19:20.350Z,5.20
2023-03-06T16:21:51.972Z,4.90
2023-03-06T16:24:18.305Z,4.72
2023-03-06T16:29:17.143Z,4.40
2023-03-06T16:31:43.719Z,3.85
2023-03-06T16:34:10.048Z,4.60
2023-03-06T16:39:03.012Z,4.57
2023-03-06T16:41:29.644Z,4.43
2023-03-06T16:43:56.055Z,4.40
2023-03-06T16:46:24.097Z,4.15
2023-03-06T16:48:51.343Z,4.10
2023-03-06T16:51:20.424Z,4.53
2023-03-06T16:53:47.238Z,4.20
2023-03-06T16:56:16.056Z,4.15
2023-03-06T16:58:43.454Z,4.30
2023-03-06T17:01:14.146Z,4.20
2023-03-06T17:03:40.675Z,4.25
2023-03-06T17:06:18.541Z,4.13
2023-03-06T17:08:45.846Z,4.20
2023-03-06T17:11:13.306Z,4.18
2023-03-06T17:13:39.968Z,4.82
2023-03-06T17:16:08.218Z,5.05
2023-03-06T17:18:34.639Z,4.75
2023-03-06T17:23:28.370Z,5.03
2023-03-06T17:26:10.259Z,5.30
2023-03-06T17:28:37.955Z,5.55
2023-03-06T17:31:12.717Z,5.88
2023-03-06T17:33:39.148Z,6.35
2023-03-06T17:38:32.167Z,6.07
2023-03-06T17:43:28.434Z,6.47
2023-03-06T17:48:21.088Z,6.57
2023-03-06T17:53:20.885Z,7.82
2023-03-06T17:55:47.914Z,7.72
2023-03-06T17:58:14.438Z,7.45
2023-03-06T18:00:42.125Z,6.63
2023-03-06T18:03:08.658Z,9.38
2023-03-06T18:05:35.750Z,8.52
2023-03-06T18:08:02.517Z,9.23
2023-03-06T18:10:28.955Z,10.18
2023-03-06T18:12:55.291Z,8.73
2023-03-06T18:17:48.360Z,8.00
2023-03-06T18:20:14.965Z,9.32
2023-03-06T18:22:41.382Z,9.45
2023-03-06T18:25:08.182Z,9.63
2023-03-06T18:27:35.625Z,9.20
2023-03-06T18:30:02.258Z,9.68
2023-03-06T18:32:28.834Z,10.32
2023-03-06T18:34:55.368Z,9.27
2023-03-06T18:37:22.403Z,9.25
2023-03-06T18:39:48.951Z,10.52
2023-03-06T18:42:15.402Z,10.93
2023-03-06T18:44:41.814Z,9.82
2023-03-06T18:47:08.265Z,10.45
2023-03-06T18:49:34.732Z,10.82
2023-03-06T18:52:01.356Z,9.82
2023-03-06T18:54:27.748Z,11.23
2023-03-06T18:59:20.601Z,11.15
2023-03-06T19:04:14.477Z,11.40
2023-03-06T19:06:41.333Z,11.23
2023-03-06T19:09:07.785Z,10.30
2023-03-06T19:11:34.376Z,10.52
2023-03-06T19:14:01.054Z,11.90
2023-03-06T19:16:29.435Z,12.60
2023-03-06T19:18:56.724Z,13.32
2023-03-06T19:21:25.249Z,12.45
2023-03-06T19:23:52.033Z,12.13
2023-03-06T19:26:18.836Z,11.50
2023-03-06T19:28:46.277Z,11.50
2023-03-06T19:31:15.888Z,11.90
2023-03-06T19:33:42.973Z,11.50
2023-03-06T19:36:12.491Z,12.20
2023-03-06T19:38:39.278Z,12.30
2023-03-06T19:41:06.207Z,11.82
2023-03-06T19:43:32.649Z,11.50
2023-03-06T19:45:59.223Z,9.88
2023-03-06T19:48:25.790Z,10.18
2023-03-06T19:50:52.231Z,11.70
2023-03-06T19:53:18.694Z,9.35
2023-03-06T19:55:45.099Z,10.00
2023-03-06T20:00:38.136Z,8.48
2023-03-06T20:03:04.917Z,9.85
2023-03-06T20:05:31.294Z,10.10
2023-03-06T20:10:24.079Z,8.20
2023-03-06T20:15:16.974Z,10.88
2023-03-06T20:17:43.412Z,9.98
2023-03-06T20:20:10.693Z,9.20
2023-03-06T20:22:37.293Z,10.13
2023-03-06T20:25:04.328Z,9.68
2023-03-06T20:27:30.781Z,10.18
2023-03-06T20:29:57.179Z,9.45
2023-03-06T20:34:49.948Z,8.27
2023-03-06T20:39:42.805Z,9.65
2023-03-06T20:44:35.510Z,9.35
2023-03-06T20:49:28.328Z,7.30
2023-03-06T20:51:54.793Z,9.93
2023-03-06T20:54:21.328Z,10.05
2023-03-06T20:56:49.179Z,7.85
2023-03-06T20:59:16.035Z,10.15
2023-03-06T21:01:44.708Z,9.13
2023-03-06T21:04:13.136Z,8.60
2023-03-06T21:06:40.580Z,10.32
2023-03-06T21:09:07.133Z,10.32
2023-03-06T21:11:34.784Z,9.48
2023-03-06T21:14:01.405Z,9.77
2023-03-06T21:16:28.621Z,8.85
2023-03-06T21:18:55.704Z,9.88
2023-03-06T21:21:25.567Z,6.38
2023-03-06T21:23:52.262Z,9.70
2023-03-06T21:26:21.388Z,10.70
2023-03-06T21:28:47.772Z,10.60
2023-03-06T21:33:41.886Z,8.68
2023-03-06T21:36:11.025Z,9.55
2023-03-06T21:38:37.789Z,9.25
2023-03-06T21:41:13.352Z,10.90
2023-03-06T21:43:40.146Z,10.32
2023-03-06T21:46:06.944Z,9.63
2023-03-06T21:48:33.750Z,8.50
2023-03-06T21:51:11.511Z,10.38
2023-03-06T21:53:38.720Z,10.77
2023-03-06T21:56:05.494Z,8.82
2023-03-06T21:58:32.189Z,9.88
2023-03-06T22:00:59.035Z,9.95
2023-03-06T22:03:27.257Z,8.38
2023-03-06T22:05:53.642Z,9.45
2023-03-06T22:10:50.102Z,10.10
2023-03-06T22:13:16.544Z,11.43
2023-03-06T22:15:52.886Z,9.48
2023-03-06T22:18:20.502Z,10.05
2023-03-06T22:20:47.052Z,11.40
2023-03-06T22:23:13.471Z,10.45
2023-03-06T22:25:39.957Z,12.45
2023-03-06T22:28:08.698Z,11.65
2023-03-06T22:30:35.396Z,12.23
2023-03-06T22:33:01.836Z,11.82
2023-03-06T22:35:28.379Z,11.40
2023-03-06T22:37:54.849Z,11.75
2023-03-06T22:40:21.311Z,10.98
2023-03-06T22:42:47.783Z,11.18
2023-03-06T22:45:14.301Z,10.63
2023-03-06T22:47:40.744Z,10.23
2023-03-06T22:50:07.653Z,10.43
2023-03-06T22:52:34.237Z,9.23
2023-03-06T22:55:00.884Z,9.27
2023-03-06T22:57:27.478Z,8.40
2023-03-06T22:59:53.987Z,8.45
2023-03-06T23:02:20.470Z,8.48
2023-03-06T23:04:50.398Z,8.65
2023-03-06T23:07:16.849Z,8.68
2023-03-06T23:09:43.329Z,8.07
2023-03-06T23:12:09.829Z,8.10
2023-03-06T23:14:36.257Z,8.05
2023-03-06T23:17:02.826Z,7.75
2023-03-06T23:19:29.342Z,7.68
2023-03-06T23:21:55.765Z,7.00
2023-03-06T23:24:22.249Z,6.57
2023-03-06T23:26:48.630Z,6.68
2023-03-06T23:31:41.492Z,6.93
2023-03-06T23:34:09.633Z,7.22
2023-03-06T23:36:36.170Z,6.55
2023-03-06T23:39:02.749Z,6.60
2023-03-06T23:41:29.131Z,6.20
2023-03-06T23:46:22.489Z,6.03
2023-03-06T23:48:48.896Z,5.60
2023-03-06T23:53:47.586Z,6.28
2023-03-06T23:56:14.710Z,5.75
2023-03-06T23:58:41.261Z,6.00
